sensor_id;sensor_type;location;lat;lon;timestamp;temperature;humidity
14172;DHT22;7165;52.388;4.928;2022-11-04T00:01:37;11.80;99.90
14172;DHT22;7165;52.388;4.928;2022-11-04T00:04:04;11.80;99.90
14172;DHT22;7165;52.388;4.928;2022-11-04T00:06:31;11.70;99.90
14172;DHT22;7165;52.388;4.928;2022-11-04T00:08:58;11.70;99.90
14172;DHT22;7165;52.388;4.928;2022-11-04T00:11:27;11.70;99.90
14172;DHT22;7165;52.388;4.928;2022-11-04T00:14:12;11.70;99.90
14172;DHT22;7165;52.388;4.928;2022-11-04T00:16:39;11.70;99.90
14172;DHT22;7165;52.388;4.928;2022-11-04T00:19:23;11.70;99.90
14172;DHT22;7165;52.388;4.928;2022-11-04T00:21:50;11.70;99.90
14172;DHT22;7165;52.388;4.928;2022-11-04T00:24:34;11.60;99.90
14172;DHT22;7165;52.388;4.928;2022-11-04T00:27:20;11.70;99.90
14172;DHT22;7165;52.388;4.928;2022-11-04T00:30:07;11.70;99.90
14172;DHT22;7165;52.388;4.928;2022-11-04T00:32:35;11.70;99.90
14172;DHT22;7165;52.388;4.928;2022-11-04T00:35:20;11.60;99.90
14172;DHT22;7165;52.388;4.928;2022-11-04T00:37:47;11.60;99.90
14172;DHT22;7165;52.388;4.928;2022-11-04T00:40:15;11.60;99.90
14172;DHT22;7165;52.388;4.928;2022-11-04T00:42:43;11.50;99.90
14172;DHT22;7165;52.388;4.928;2022-11-04T00:45:11;11.40;99.90
14172;DHT22;7165;52.388;4.928;2022-11-04T00:47:38;11.40;99.90
14172;DHT22;7165;52.388;4.928;2022-11-04T00:50:05;11.40;99.90
14172;DHT22;7165;52.388;4.928;2022-11-04T00:52:32;11.40;99.90
14172;DHT22;7165;52.388;4.928;2022-11-04T00:54:59;11.40;99.90
14172;DHT22;7165;52.388;4.928;2022-11-04T00:57:25;11.40;99.90
14172;DHT22;7165;52.388;4.928;2022-11-04T00:59:54;11.40;99.90
14172;DHT22;7165;52.388;4.928;2022-11-04T01:02:20;11.40;99.90
14172;DHT22;7165;52.388;4.928;2022-11-04T01:04:47;11.40;99.90
14172;DHT22;7165;52.388;4.928;2022-11-04T01:07:14;11.40;99.90
14172;DHT22;7165;52.388;4.928;2022-11-04T01:09:41;11.40;99.90
14172;DHT22;7165;52.388;4.928;2022-11-04T01:12:07;11.40;99.90
14172;DHT22;7165;52.388;4.928;2022-11-04T01:14:34;11.50;99.90
14172;DHT22;7165;52.388;4.928;2022-11-04T01:17:02;11.50;99.90
14172;DHT22;7165;52.388;4.928;2022-11-04T01:19:29;11.40;99.90
14172;DHT22;7165;52.388;4.928;2022-11-04T01:21:55;11.50;99.90
14172;DHT22;7165;52.388;4.928;2022-11-04T01:24:22;11.50;99.90
14172;DHT22;7165;52.388;4.928;2022-11-04T01:26:49;11.40;99.90
14172;DHT22;7165;52.388;4.928;2022-11-04T01:29:15;11.30;99.90
14172;DHT22;7165;52.388;4.928;2022-11-04T01:31:42;11.20;99.90
14172;DHT22;7165;52.388;4.928;2022-11-04T01:34:10;11.20;99.90
14172;DHT22;7165;52.388;4.928;2022-11-04T01:36:37;11.10;99.90
14172;DHT22;7165;52.388;4.928;2022-11-04T01:39:03;11.10;99.90
14172;DHT22;7165;52.388;4.928;2022-11-04T01:41:32;11.00;99.90
14172;DHT22;7165;52.388;4.928;2022-11-04T01:44:01;11.00;99.90
14172;DHT22;7165;52.388;4.928;2022-11-04T01:46:35;11.00;99.90
14172;DHT22;7165;52.388;4.928;2022-11-04T01:49:15;10.90;99.90
14172;DHT22;7165;52.388;4.928;2022-11-04T01:51:46;10.90;99.90
14172;DHT22;7165;52.388;4.928;2022-11-04T01:54:14;10.90;99.90
14172;DHT22;7165;52.388;4.928;2022-11-04T01:56:42;10.90;99.90
14172;DHT22;7165;52.388;4.928;2022-11-04T01:59:14;10.90;99.90
14172;DHT22;7165;52.388;4.928;2022-11-04T02:01:44;10.90;99.90
14172;DHT22;7165;52.388;4.928;2022-11-04T02:04:12;10.90;99.90
14172;DHT22;7165;52.388;4.928;2022-11-04T02:06:53;10.80;99.90
14172;DHT22;7165;52.388;4.928;2022-11-04T02:09:21;10.80;99.90
14172;DHT22;7165;52.388;4.928;2022-11-04T02:11:48;10.70;99.90
14172;DHT22;7165;52.388;4.928;2022-11-04T02:14:33;10.60;99.90
14172;DHT22;7165;52.388;4.928;2022-11-04T02:17:08;10.50;99.90
14172;DHT22;7165;52.388;4.928;2022-11-04T02:19:54;10.50;99.90
14172;DHT22;7165;52.388;4.928;2022-11-04T02:22:35;10.40;99.90
14172;DHT22;7165;52.388;4.928;2022-11-04T02:25:31;10.30;99.90
14172;DHT22;7165;52.388;4.928;2022-11-04T02:28:15;10.20;99.90
14172;DHT22;7165;52.388;4.928;2022-11-04T02:30:52;10.20;99.90
14172;DHT22;7165;52.388;4.928;2022-11-04T02:33:21;10.10;99.90
14172;DHT22;7165;52.388;4.928;2022-11-04T02:35:58;10.10;99.90
14172;DHT22;7165;52.388;4.928;2022-11-04T02:38:32;10.10;99.90
14172;DHT22;7165;52.388;4.928;2022-11-04T02:41:10;10.10;99.90
14172;DHT22;7165;52.388;4.928;2022-11-04T02:43:47;10.10;99.90
14172;DHT22;7165;52.388;4.928;2022-11-04T02:46:19;10.20;99.90
14172;DHT22;7165;52.388;4.928;2022-11-04T02:48:51;10.20;99.90
14172;DHT22;7165;52.388;4.928;2022-11-04T02:51:25;10.10;99.90
14172;DHT22;7165;52.388;4.928;2022-11-04T02:54:00;10.20;99.90
14172;DHT22;7165;52.388;4.928;2022-11-04T02:56:30;10.10;99.90
14172;DHT22;7165;52.388;4.928;2022-11-04T02:59:02;10.10;99.90
14172;DHT22;7165;52.388;4.928;2022-11-04T03:01:34;10.00;99.90
14172;DHT22;7165;52.388;4.928;2022-11-04T03:04:08;10.00;99.90
14172;DHT22;7165;52.388;4.928;2022-11-04T03:06:36;10.00;99.90
14172;DHT22;7165;52.388;4.928;2022-11-04T03:09:03;10.00;99.90
14172;DHT22;7165;52.388;4.928;2022-11-04T03:11:30;10.00;99.90
14172;DHT22;7165;52.388;4.928;2022-11-04T03:14:00;10.10;99.90
14172;DHT22;7165;52.388;4.928;2022-11-04T03:16:32;10.10;99.90
14172;DHT22;7165;52.388;4.928;2022-11-04T03:19:04;10.10;99.90
14172;DHT22;7165;52.388;4.928;2022-11-04T03:21:38;10.10;99.90
14172;DHT22;7165;52.388;4.928;2022-11-04T03:24:05;10.10;99.90
14172;DHT22;7165;52.388;4.928;2022-11-04T03:26:38;10.10;99.90
14172;DHT22;7165;52.388;4.928;2022-11-04T03:29:16;10.10;99.90
14172;DHT22;7165;52.388;4.928;2022-11-04T03:31:49;10.10;99.90
14172;DHT22;7165;52.388;4.928;2022-11-04T03:34:19;10.10;99.90
14172;DHT22;7165;52.388;4.928;2022-11-04T03:36:46;10.10;99.90
14172;DHT22;7165;52.388;4.928;2022-11-04T03:39:13;10.20;99.90
14172;DHT22;7165;52.388;4.928;2022-11-04T03:41:42;10.20;99.90
14172;DHT22;7165;52.388;4.928;2022-11-04T03:44:11;10.10;99.90
14172;DHT22;7165;52.388;4.928;2022-11-04T03:46:39;10.10;99.90
14172;DHT22;7165;52.388;4.928;2022-11-04T03:49:08;10.10;99.90
14172;DHT22;7165;52.388;4.928;2022-11-04T03:51:35;10.10;99.90
14172;DHT22;7165;52.388;4.928;2022-11-04T03:54:01;10.20;99.90
14172;DHT22;7165;52.388;4.928;2022-11-04T03:56:47;10.20;99.90
14172;DHT22;7165;52.388;4.928;2022-11-04T03:59:33;10.20;99.90
14172;DHT22;7165;52.388;4.928;2022-11-04T04:02:09;10.20;99.90
14172;DHT22;7165;52.388;4.928;2022-11-04T04:04:41;10.20;99.90
14172;DHT22;7165;52.388;4.928;2022-11-04T04:07:15;10.20;99.90
14172;DHT22;7165;52.388;4.928;2022-11-04T04:09:45;10.20;99.90
14172;DHT22;7165;52.388;4.928;2022-11-04T04:12:19;10.30;99.90
14172;DHT22;7165;52.388;4.928;2022-11-04T04:14:54;10.30;99.90
14172;DHT22;7165;52.388;4.928;2022-11-04T04:17:27;10.30;99.90
14172;DHT22;7165;52.388;4.928;2022-11-04T04:20:00;10.30;99.90
14172;DHT22;7165;52.388;4.928;2022-11-04T04:22:29;10.30;99.90
14172;DHT22;7165;52.388;4.928;2022-11-04T04:24:59;10.30;99.90
14172;DHT22;7165;52.388;4.928;2022-11-04T04:27:46;10.20;99.90
14172;DHT22;7165;52.388;4.928;2022-11-04T04:30:15;10.20;99.90
14172;DHT22;7165;52.388;4.928;2022-11-04T04:32:44;10.20;99.90
14172;DHT22;7165;52.388;4.928;2022-11-04T04:35:13;10.20;99.90
14172;DHT22;7165;52.388;4.928;2022-11-04T04:38:00;10.20;99.90
14172;DHT22;7165;52.388;4.928;2022-11-04T04:40:43;10.20;99.90
14172;DHT22;7165;52.388;4.928;2022-11-04T04:43:28;10.30;99.90
14172;DHT22;7165;52.388;4.928;2022-11-04T04:46:12;10.30;99.90
14172;DHT22;7165;52.388;4.928;2022-11-04T04:48:39;10.30;99.90
14172;DHT22;7165;52.388;4.928;2022-11-04T04:51:07;10.20;99.90
14172;DHT22;7165;52.388;4.928;2022-11-04T04:53:34;10.30;99.90
14172;DHT22;7165;52.388;4.928;2022-11-04T04:56:00;10.30;99.90
14172;DHT22;7165;52.388;4.928;2022-11-04T04:58:27;10.30;99.90
14172;DHT22;7165;52.388;4.928;2022-11-04T05:00:54;10.30;99.90
14172;DHT22;7165;52.388;4.928;2022-11-04T05:03:20;10.30;99.90
14172;DHT22;7165;52.388;4.928;2022-11-04T05:05:47;10.40;99.90
14172;DHT22;7165;52.388;4.928;2022-11-04T05:08:15;10.30;99.90
14172;DHT22;7165;52.388;4.928;2022-11-04T05:10:41;10.40;99.90
14172;DHT22;7165;52.388;4.928;2022-11-04T05:13:11;10.40;99.90
14172;DHT22;7165;52.388;4.928;2022-11-04T05:15:55;10.40;99.90
14172;DHT22;7165;52.388;4.928;2022-11-04T05:18:22;10.30;99.90
14172;DHT22;7165;52.388;4.928;2022-11-04T05:20:48;10.40;99.90
14172;DHT22;7165;52.388;4.928;2022-11-04T05:23:16;10.40;99.90
14172;DHT22;7165;52.388;4.928;2022-11-04T05:25:43;10.40;99.90
14172;DHT22;7165;52.388;4.928;2022-11-04T05:28:09;10.40;99.90
14172;DHT22;7165;52.388;4.928;2022-11-04T05:30:36;10.40;99.90
14172;DHT22;7165;52.388;4.928;2022-11-04T05:33:03;10.40;99.90
14172;DHT22;7165;52.388;4.928;2022-11-04T05:35:30;10.40;99.90
14172;DHT22;7165;52.388;4.928;2022-11-04T05:37:56;10.40;99.90
14172;DHT22;7165;52.388;4.928;2022-11-04T05:40:25;10.40;99.90
14172;DHT22;7165;52.388;4.928;2022-11-04T05:42:51;10.40;99.90
14172;DHT22;7165;52.388;4.928;2022-11-04T05:45:18;10.40;99.90
14172;DHT22;7165;52.388;4.928;2022-11-04T05:47:45;10.40;99.90
14172;DHT22;7165;52.388;4.928;2022-11-04T05:50:11;10.50;99.90
14172;DHT22;7165;52.388;4.928;2022-11-04T05:52:38;10.40;99.90
14172;DHT22;7165;52.388;4.928;2022-11-04T05:55:05;10.50;99.90
14172;DHT22;7165;52.388;4.928;2022-11-04T05:57:33;10.50;99.90
14172;DHT22;7165;52.388;4.928;2022-11-04T06:00:03;10.60;99.90
14172;DHT22;7165;52.388;4.928;2022-11-04T06:02:30;10.60;99.90
14172;DHT22;7165;52.388;4.928;2022-11-04T06:04:56;10.60;99.90
14172;DHT22;7165;52.388;4.928;2022-11-04T06:07:23;10.60;99.90
14172;DHT22;7165;52.388;4.928;2022-11-04T06:09:50;10.60;99.90
14172;DHT22;7165;52.388;4.928;2022-11-04T06:12:17;10.60;99.90
14172;DHT22;7165;52.388;4.928;2022-11-04T06:14:45;10.60;99.90
14172;DHT22;7165;52.388;4.928;2022-11-04T06:17:13;10.60;99.90
14172;DHT22;7165;52.388;4.928;2022-11-04T06:19:41;10.60;99.90
14172;DHT22;7165;52.388;4.928;2022-11-04T06:22:08;10.60;99.90
14172;DHT22;7165;52.388;4.928;2022-11-04T06:24:35;10.50;99.90
14172;DHT22;7165;52.388;4.928;2022-11-04T06:27:01;10.50;99.90
14172;DHT22;7165;52.388;4.928;2022-11-04T06:29:28;10.50;99.90
14172;DHT22;7165;52.388;4.928;2022-11-04T06:31:56;10.50;99.90
14172;DHT22;7165;52.388;4.928;2022-11-04T06:34:23;10.50;99.90
14172;DHT22;7165;52.388;4.928;2022-11-04T06:36:50;10.50;99.90
14172;DHT22;7165;52.388;4.928;2022-11-04T06:39:17;10.40;99.90
14172;DHT22;7165;52.388;4.928;2022-11-04T06:41:43;10.40;99.90
14172;DHT22;7165;52.388;4.928;2022-11-04T06:44:10;10.40;99.90
14172;DHT22;7165;52.388;4.928;2022-11-04T06:46:38;10.40;99.90
14172;DHT22;7165;52.388;4.928;2022-11-04T06:49:10;10.40;99.90
14172;DHT22;7165;52.388;4.928;2022-11-04T06:51:37;10.40;99.90
14172;DHT22;7165;52.388;4.928;2022-11-04T06:54:03;10.40;99.90
14172;DHT22;7165;52.388;4.928;2022-11-04T06:56:30;10.40;99.90
14172;DHT22;7165;52.388;4.928;2022-11-04T06:58:57;10.50;99.90
14172;DHT22;7165;52.388;4.928;2022-11-04T07:01:25;10.50;99.90
14172;DHT22;7165;52.388;4.928;2022-11-04T07:03:53;10.50;99.90
14172;DHT22;7165;52.388;4.928;2022-11-04T07:06:22;10.60;99.90
14172;DHT22;7165;52.388;4.928;2022-11-04T07:08:50;10.60;99.90
14172;DHT22;7165;52.388;4.928;2022-11-04T07:11:19;10.60;99.90
14172;DHT22;7165;52.388;4.928;2022-11-04T07:13:45;10.60;99.90
14172;DHT22;7165;52.388;4.928;2022-11-04T07:16:14;10.60;99.90
14172;DHT22;7165;52.388;4.928;2022-11-04T07:18:41;10.60;99.90
14172;DHT22;7165;52.388;4.928;2022-11-04T07:21:08;10.60;99.90
14172;DHT22;7165;52.388;4.928;2022-11-04T07:23:36;10.60;99.90
14172;DHT22;7165;52.388;4.928;2022-11-04T07:26:05;10.60;99.90
14172;DHT22;7165;52.388;4.928;2022-11-04T07:28:32;10.60;99.90
14172;DHT22;7165;52.388;4.928;2022-11-04T07:31:00;10.60;99.90
14172;DHT22;7165;52.388;4.928;2022-11-04T07:33:27;10.60;99.90
14172;DHT22;7165;52.388;4.928;2022-11-04T07:35:54;10.60;99.90
14172;DHT22;7165;52.388;4.928;2022-11-04T07:38:21;10.60;99.90
14172;DHT22;7165;52.388;4.928;2022-11-04T07:40:49;10.60;99.90
14172;DHT22;7165;52.388;4.928;2022-11-04T07:43:16;10.50;99.90
14172;DHT22;7165;52.388;4.928;2022-11-04T07:45:43;10.50;99.90
14172;DHT22;7165;52.388;4.928;2022-11-04T07:48:09;10.50;99.90
14172;DHT22;7165;52.388;4.928;2022-11-04T07:50:38;10.50;99.90
14172;DHT22;7165;52.388;4.928;2022-11-04T07:53:05;10.40;99.90
14172;DHT22;7165;52.388;4.928;2022-11-04T07:55:32;10.50;99.90
14172;DHT22;7165;52.388;4.928;2022-11-04T07:58:00;10.50;99.90
14172;DHT22;7165;52.388;4.928;2022-11-04T08:00:27;10.50;99.90
14172;DHT22;7165;52.388;4.928;2022-11-04T08:02:54;10.50;99.90
14172;DHT22;7165;52.388;4.928;2022-11-04T08:05:20;10.50;99.90
14172;DHT22;7165;52.388;4.928;2022-11-04T08:07:47;10.60;99.90
14172;DHT22;7165;52.388;4.928;2022-11-04T08:10:14;10.70;99.90
14172;DHT22;7165;52.388;4.928;2022-11-04T08:12:41;10.70;99.90
14172;DHT22;7165;52.388;4.928;2022-11-04T08:15:09;10.80;99.90
14172;DHT22;7165;52.388;4.928;2022-11-04T08:17:36;10.80;99.90
14172;DHT22;7165;52.388;4.928;2022-11-04T08:20:03;10.80;99.90
14172;DHT22;7165;52.388;4.928;2022-11-04T08:22:30;10.80;99.90
14172;DHT22;7165;52.388;4.928;2022-11-04T08:24:57;10.90;99.90
14172;DHT22;7165;52.388;4.928;2022-11-04T08:27:23;10.90;99.90
14172;DHT22;7165;52.388;4.928;2022-11-04T08:29:50;10.90;99.90
14172;DHT22;7165;52.388;4.928;2022-11-04T08:32:18;11.00;99.90
14172;DHT22;7165;52.388;4.928;2022-11-04T08:34:44;11.10;99.90
14172;DHT22;7165;52.388;4.928;2022-11-04T08:37:12;11.10;99.90
14172;DHT22;7165;52.388;4.928;2022-11-04T08:39:39;11.20;99.90
14172;DHT22;7165;52.388;4.928;2022-11-04T08:42:06;11.20;99.90
14172;DHT22;7165;52.388;4.928;2022-11-04T08:44:32;11.20;99.90
14172;DHT22;7165;52.388;4.928;2022-11-04T08:46:59;11.30;99.90
14172;DHT22;7165;52.388;4.928;2022-11-04T08:49:27;11.30;99.90
14172;DHT22;7165;52.388;4.928;2022-11-04T08:51:54;11.30;99.90
14172;DHT22;7165;52.388;4.928;2022-11-04T08:54:24;11.20;99.90
14172;DHT22;7165;52.388;4.928;2022-11-04T08:56:52;11.20;99.90
14172;DHT22;7165;52.388;4.928;2022-11-04T08:59:19;11.30;99.90
14172;DHT22;7165;52.388;4.928;2022-11-04T09:01:46;11.30;99.90
14172;DHT22;7165;52.388;4.928;2022-11-04T09:04:13;11.30;99.90
14172;DHT22;7165;52.388;4.928;2022-11-04T09:06:42;11.30;99.90
14172;DHT22;7165;52.388;4.928;2022-11-04T09:09:13;11.30;99.90
14172;DHT22;7165;52.388;4.928;2022-11-04T09:11:41;11.40;99.90
14172;DHT22;7165;52.388;4.928;2022-11-04T09:14:09;11.30;99.90
14172;DHT22;7165;52.388;4.928;2022-11-04T09:16:37;11.30;99.90
14172;DHT22;7165;52.388;4.928;2022-11-04T09:19:04;11.20;99.90
14172;DHT22;7165;52.388;4.928;2022-11-04T09:21:31;11.20;99.90
14172;DHT22;7165;52.388;4.928;2022-11-04T09:23:59;11.30;99.90
14172;DHT22;7165;52.388;4.928;2022-11-04T09:26:26;11.40;99.90
14172;DHT22;7165;52.388;4.928;2022-11-04T09:28:53;11.50;99.90
14172;DHT22;7165;52.388;4.928;2022-11-04T09:31:20;11.60;99.90
14172;DHT22;7165;52.388;4.928;2022-11-04T09:33:47;11.70;99.90
14172;DHT22;7165;52.388;4.928;2022-11-04T09:36:13;11.80;99.90
14172;DHT22;7165;52.388;4.928;2022-11-04T09:38:41;11.90;99.90
14172;DHT22;7165;52.388;4.928;2022-11-04T09:44:16;12.00;99.90
14172;DHT22;7165;52.388;4.928;2022-11-04T09:46:45;12.10;99.90
14172;DHT22;7165;52.388;4.928;2022-11-04T09:49:14;12.30;99.90
14172;DHT22;7165;52.388;4.928;2022-11-04T09:51:43;12.50;99.90
14172;DHT22;7165;52.388;4.928;2022-11-04T09:54:17;12.60;99.90
14172;DHT22;7165;52.388;4.928;2022-11-04T09:56:48;12.70;99.90
14172;DHT22;7165;52.388;4.928;2022-11-04T09:59:23;12.80;99.90
14172;DHT22;7165;52.388;4.928;2022-11-04T10:02:01;12.90;99.90
14172;DHT22;7165;52.388;4.928;2022-11-04T10:04:40;12.90;99.90
14172;DHT22;7165;52.388;4.928;2022-11-04T10:07:19;12.90;99.90
14172;DHT22;7165;52.388;4.928;2022-11-04T10:09:57;13.00;99.90
14172;DHT22;7165;52.388;4.928;2022-11-04T10:12:41;12.90;99.90
14172;DHT22;7165;52.388;4.928;2022-11-04T10:15:21;12.90;99.90
14172;DHT22;7165;52.388;4.928;2022-11-04T10:17:59;12.90;99.90
14172;DHT22;7165;52.388;4.928;2022-11-04T10:20:48;12.90;99.90
14172;DHT22;7165;52.388;4.928;2022-11-04T10:23:20;12.90;99.90
14172;DHT22;7165;52.388;4.928;2022-11-04T10:25:49;12.90;99.90
14172;DHT22;7165;52.388;4.928;2022-11-04T10:28:19;12.90;99.90
14172;DHT22;7165;52.388;4.928;2022-11-04T10:30:49;12.90;99.90
14172;DHT22;7165;52.388;4.928;2022-11-04T10:33:23;12.90;99.90
14172;DHT22;7165;52.388;4.928;2022-11-04T10:35:54;12.80;99.90
14172;DHT22;7165;52.388;4.928;2022-11-04T10:38:33;12.70;99.90
14172;DHT22;7165;52.388;4.928;2022-11-04T10:41:01;12.70;99.90
14172;DHT22;7165;52.388;4.928;2022-11-04T10:43:32;12.70;99.90
14172;DHT22;7165;52.388;4.928;2022-11-04T10:46:12;12.60;99.90
14172;DHT22;7165;52.388;4.928;2022-11-04T10:48:47;12.60;99.90
14172;DHT22;7165;52.388;4.928;2022-11-04T10:51:15;12.60;99.90
14172;DHT22;7165;52.388;4.928;2022-11-04T10:53:46;12.70;99.90
14172;DHT22;7165;52.388;4.928;2022-11-04T10:56:18;12.80;99.90
14172;DHT22;7165;52.388;4.928;2022-11-04T10:58:47;12.80;99.90
14172;DHT22;7165;52.388;4.928;2022-11-04T11:01:28;12.90;99.90
14172;DHT22;7165;52.388;4.928;2022-11-04T11:03:56;13.00;99.90
14172;DHT22;7165;52.388;4.928;2022-11-04T11:06:26;13.10;99.90
14172;DHT22;7165;52.388;4.928;2022-11-04T11:08:55;13.20;99.90
14172;DHT22;7165;52.388;4.928;2022-11-04T11:11:36;13.30;99.90
14172;DHT22;7165;52.388;4.928;2022-11-04T11:14:15;13.50;99.90
14172;DHT22;7165;52.388;4.928;2022-11-04T11:16:42;13.50;99.90
14172;DHT22;7165;52.388;4.928;2022-11-04T11:19:15;13.50;99.90
14172;DHT22;7165;52.388;4.928;2022-11-04T11:21:44;13.50;99.90
14172;DHT22;7165;52.388;4.928;2022-11-04T11:24:13;13.60;99.90
14172;DHT22;7165;52.388;4.928;2022-11-04T11:26:41;13.60;99.90
14172;DHT22;7165;52.388;4.928;2022-11-04T11:29:18;13.50;99.90
14172;DHT22;7165;52.388;4.928;2022-11-04T11:31:47;13.50;99.90
14172;DHT22;7165;52.388;4.928;2022-11-04T11:34:19;13.40;99.90
14172;DHT22;7165;52.388;4.928;2022-11-04T11:36:48;13.40;99.90
14172;DHT22;7165;52.388;4.928;2022-11-04T11:39:17;13.30;99.90
14172;DHT22;7165;52.388;4.928;2022-11-04T11:41:52;13.30;99.90
14172;DHT22;7165;52.388;4.928;2022-11-04T11:44:25;13.20;99.90
14172;DHT22;7165;52.388;4.928;2022-11-04T11:46:57;13.20;99.90
14172;DHT22;7165;52.388;4.928;2022-11-04T11:49:28;13.10;99.90
14172;DHT22;7165;52.388;4.928;2022-11-04T11:51:55;13.20;99.90
14172;DHT22;7165;52.388;4.928;2022-11-04T11:54:42;13.10;99.90
14172;DHT22;7165;52.388;4.928;2022-11-04T11:57:22;13.20;99.90
14172;DHT22;7165;52.388;4.928;2022-11-04T11:59:53;13.10;99.90
14172;DHT22;7165;52.388;4.928;2022-11-04T12:02:28;13.10;99.90
14172;DHT22;7165;52.388;4.928;2022-11-04T12:04:57;13.10;99.90
14172;DHT22;7165;52.388;4.928;2022-11-04T12:07:30;13.00;99.90
14172;DHT22;7165;52.388;4.928;2022-11-04T12:10:05;13.00;99.90
14172;DHT22;7165;52.388;4.928;2022-11-04T12:12:41;12.90;99.90
14172;DHT22;7165;52.388;4.928;2022-11-04T12:15:31;12.80;99.90
14172;DHT22;7165;52.388;4.928;2022-11-04T12:18:08;12.80;99.90
14172;DHT22;7165;52.388;4.928;2022-11-04T12:20:45;12.70;99.90
14172;DHT22;7165;52.388;4.928;2022-11-04T12:23:19;12.60;99.90
14172;DHT22;7165;52.388;4.928;2022-11-04T12:25:57;12.60;99.90
14172;DHT22;7165;52.388;4.928;2022-11-04T12:28:30;12.50;99.90
14172;DHT22;7165;52.388;4.928;2022-11-04T12:31:12;12.50;99.90
14172;DHT22;7165;52.388;4.928;2022-11-04T12:33:46;12.50;99.90
14172;DHT22;7165;52.388;4.928;2022-11-04T12:36:26;12.60;99.90
14172;DHT22;7165;52.388;4.928;2022-11-04T12:39:06;12.70;99.90
14172;DHT22;7165;52.388;4.928;2022-11-04T12:41:42;12.70;99.90
14172;DHT22;7165;52.388;4.928;2022-11-04T12:44:17;12.70;99.90
14172;DHT22;7165;52.388;4.928;2022-11-04T12:46:55;12.70;99.90
14172;DHT22;7165;52.388;4.928;2022-11-04T12:49:41;12.70;99.90
14172;DHT22;7165;52.388;4.928;2022-11-04T12:52:23;12.80;99.90
14172;DHT22;7165;52.388;4.928;2022-11-04T12:55:10;12.80;99.90
14172;DHT22;7165;52.388;4.928;2022-11-04T12:57:48;12.90;99.90
14172;DHT22;7165;52.388;4.928;2022-11-04T13:00:18;12.90;99.90
14172;DHT22;7165;52.388;4.928;2022-11-04T13:02:55;12.90;99.90
14172;DHT22;7165;52.388;4.928;2022-11-04T13:05:35;13.00;99.90
14172;DHT22;7165;52.388;4.928;2022-11-04T13:08:09;13.00;99.90
14172;DHT22;7165;52.388;4.928;2022-11-04T13:10:41;13.00;99.90
14172;DHT22;7165;52.388;4.928;2022-11-04T13:13:11;12.90;99.90
14172;DHT22;7165;52.388;4.928;2022-11-04T13:15:44;12.90;99.90
14172;DHT22;7165;52.388;4.928;2022-11-04T13:18:17;12.80;99.90
14172;DHT22;7165;52.388;4.928;2022-11-04T13:20:49;12.70;99.90
14172;DHT22;7165;52.388;4.928;2022-11-04T13:23:22;12.70;99.90
14172;DHT22;7165;52.388;4.928;2022-11-04T13:25:50;12.60;99.90
14172;DHT22;7165;52.388;4.928;2022-11-04T13:28:19;12.60;99.90
14172;DHT22;7165;52.388;4.928;2022-11-04T13:30:52;12.60;99.90
14172;DHT22;7165;52.388;4.928;2022-11-04T13:33:26;12.60;99.90
14172;DHT22;7165;52.388;4.928;2022-11-04T13:36:00;12.60;99.90
14172;DHT22;7165;52.388;4.928;2022-11-04T13:38:33;12.70;99.90
14172;DHT22;7165;52.388;4.928;2022-11-04T13:41:24;12.70;99.90
14172;DHT22;7165;52.388;4.928;2022-11-04T13:43:54;12.70;99.90
14172;DHT22;7165;52.388;4.928;2022-11-04T13:46:24;12.70;99.90
14172;DHT22;7165;52.388;4.928;2022-11-04T13:49:13;12.70;99.90
14172;DHT22;7165;52.388;4.928;2022-11-04T13:51:44;12.60;99.90
14172;DHT22;7165;52.388;4.928;2022-11-04T13:54:25;12.70;99.90
14172;DHT22;7165;52.388;4.928;2022-11-04T13:57:06;12.70;99.90
14172;DHT22;7165;52.388;4.928;2022-11-04T13:59:35;12.70;99.90
14172;DHT22;7165;52.388;4.928;2022-11-04T14:02:22;12.70;99.90
14172;DHT22;7165;52.388;4.928;2022-11-04T14:04:50;12.70;99.90
14172;DHT22;7165;52.388;4.928;2022-11-04T14:07:17;12.70;99.90
14172;DHT22;7165;52.388;4.928;2022-11-04T14:09:53;12.80;99.90
14172;DHT22;7165;52.388;4.928;2022-11-04T14:12:28;12.80;99.90
14172;DHT22;7165;52.388;4.928;2022-11-04T14:15:03;12.90;99.90
14172;DHT22;7165;52.388;4.928;2022-11-04T14:18:01;12.90;99.90
14172;DHT22;7165;52.388;4.928;2022-11-04T14:20:32;13.00;99.90
14172;DHT22;7165;52.388;4.928;2022-11-04T14:23:03;13.00;99.90
14172;DHT22;7165;52.388;4.928;2022-11-04T14:25:35;13.00;99.90
14172;DHT22;7165;52.388;4.928;2022-11-04T14:28:17;13.00;99.90
14172;DHT22;7165;52.388;4.928;2022-11-04T14:30:48;13.00;99.90
14172;DHT22;7165;52.388;4.928;2022-11-04T14:33:37;13.20;99.90
14172;DHT22;7165;52.388;4.928;2022-11-04T14:36:24;13.30;99.90
14172;DHT22;7165;52.388;4.928;2022-11-04T14:38:54;13.10;99.90
14172;DHT22;7165;52.388;4.928;2022-11-04T14:41:30;13.00;99.90
14172;DHT22;7165;52.388;4.928;2022-11-04T14:44:01;12.90;99.90
14172;DHT22;7165;52.388;4.928;2022-11-04T14:46:35;12.90;99.90
14172;DHT22;7165;52.388;4.928;2022-11-04T14:49:06;12.80;99.90
14172;DHT22;7165;52.388;4.928;2022-11-04T14:51:39;12.80;99.90
14172;DHT22;7165;52.388;4.928;2022-11-04T14:54:11;12.80;99.90
14172;DHT22;7165;52.388;4.928;2022-11-04T14:56:40;12.70;99.90
14172;DHT22;7165;52.388;4.928;2022-11-04T14:59:19;12.70;99.90
14172;DHT22;7165;52.388;4.928;2022-11-04T15:01:47;12.70;99.90
14172;DHT22;7165;52.388;4.928;2022-11-04T15:04:20;12.60;99.90
14172;DHT22;7165;52.388;4.928;2022-11-04T15:06:54;12.60;99.90
14172;DHT22;7165;52.388;4.928;2022-11-04T15:09:22;12.60;99.90
14172;DHT22;7165;52.388;4.928;2022-11-04T15:11:50;12.50;99.90
14172;DHT22;7165;52.388;4.928;2022-11-04T15:14:35;12.50;99.90
14172;DHT22;7165;52.388;4.928;2022-11-04T15:17:02;12.50;99.90
14172;DHT22;7165;52.388;4.928;2022-11-04T15:19:31;12.40;99.90
14172;DHT22;7165;52.388;4.928;2022-11-04T15:22:01;12.40;99.90
14172;DHT22;7165;52.388;4.928;2022-11-04T15:24:28;12.40;99.90
14172;DHT22;7165;52.388;4.928;2022-11-04T15:26:59;12.30;99.90
14172;DHT22;7165;52.388;4.928;2022-11-04T15:29:26;12.30;99.90
14172;DHT22;7165;52.388;4.928;2022-11-04T15:31:55;12.20;99.90
14172;DHT22;7165;52.388;4.928;2022-11-04T15:34:23;12.20;99.90
14172;DHT22;7165;52.388;4.928;2022-11-04T15:36:51;12.20;99.90
14172;DHT22;7165;52.388;4.928;2022-11-04T15:39:24;12.10;99.90
14172;DHT22;7165;52.388;4.928;2022-11-04T15:41:56;12.00;99.90
14172;DHT22;7165;52.388;4.928;2022-11-04T15:44:45;11.90;99.90
14172;DHT22;7165;52.388;4.928;2022-11-04T15:47:23;11.90;99.90
14172;DHT22;7165;52.388;4.928;2022-11-04T15:49:51;11.80;99.90
14172;DHT22;7165;52.388;4.928;2022-11-04T15:52:20;11.80;99.90
14172;DHT22;7165;52.388;4.928;2022-11-04T15:54:50;11.70;99.90
14172;DHT22;7165;52.388;4.928;2022-11-04T15:57:20;11.60;99.90
14172;DHT22;7165;52.388;4.928;2022-11-04T15:59:51;11.60;99.90
14172;DHT22;7165;52.388;4.928;2022-11-04T16:02:23;11.50;99.90
14172;DHT22;7165;52.388;4.928;2022-11-04T16:05:06;11.50;99.90
14172;DHT22;7165;52.388;4.928;2022-11-04T16:07:35;11.40;99.90
14172;DHT22;7165;52.388;4.928;2022-11-04T16:10:22;11.40;99.90
14172;DHT22;7165;52.388;4.928;2022-11-04T16:12:51;11.30;99.90
14172;DHT22;7165;52.388;4.928;2022-11-04T16:15:30;11.30;99.90